sensor_id;sensor_type;location;lat;lon;timestamp;pressure;altitude;pressure_sealevel;temperature;humidity
41222;BME280;26952;42.884;23.918;2023-04-12T00:01:12;94878.31;;;9.74;73.25
41222;BME280;26952;42.884;23.918;2023-04-12T00:03:38;94886.34;;;9.87;72.83
41222;BME280;26952;42.884;23.918;2023-04-12T00:06:03;94875.84;;;9.72;75.25
41222;BME280;26952;42.884;23.918;2023-04-12T00:08:31;94867.94;;;9.72;75.01
41222;BME280;26952;42.884;23.918;2023-04-12T00:11:02;94863.13;;;9.61;76.08
41222;BME280;26952;42.884;23.918;2023-04-12T00:13:28;94864.78;;;9.62;75.86
41222;BME280;26952;42.884;23.918;2023-04-12T00:15:54;94860.09;;;9.58;75.87
41222;BME280;26952;42.884;23.918;2023-04-12T00:18:20;94854.75;;;9.51;76.43
41222;BME280;26952;42.884;23.918;2023-04-12T00:20:49;94847.19;;;9.48;74.98
41222;BME280;26952;42.884;23.918;2023-04-12T00:23:16;94876.00;;;9.64;76.28
41222;BME280;26952;42.884;23.918;2023-04-12T00:25:41;94853.09;;;9.50;75.46
41222;BME280;26952;42.884;23.918;2023-04-12T00:28:06;94851.41;;;9.43;78.71
41222;BME280;26952;42.884;23.918;2023-04-12T00:30:32;94875.38;;;9.41;79.52
41222;BME280;26952;42.884;23.918;2023-04-12T00:32:57;94848.47;;;9.31;79.32
41222;BME280;26952;42.884;23.918;2023-04-12T00:35:23;94860.09;;;9.37;81.80
41222;BME280;26952;42.884;23.918;2023-04-12T00:37:49;94832.50;;;9.18;80.51
41222;BME280;26952;42.884;23.918;2023-04-12T00:40:14;94849.22;;;9.25;78.13
41222;BME280;26952;42.884;23.918;2023-04-12T00:42:40;94836.16;;;9.17;76.94
41222;BME280;26952;42.884;23.918;2023-04-12T00:45:06;94861.03;;;9.29;78.48
41222;BME280;26952;42.884;23.918;2023-04-12T00:47:35;94809.13;;;8.94;79.04
41222;BME280;26952;42.884;23.918;2023-04-12T00:50:02;94839.78;;;9.16;76.39
41222;BME280;26952;42.884;23.918;2023-04-12T00:52:28;94841.69;;;9.01;80.57
41222;BME280;26952;42.884;23.918;2023-04-12T00:55:00;94858.06;;;9.18;80.73
41222;BME280;26952;42.884;23.918;2023-04-12T00:57:29;94846.19;;;9.07;81.32
41222;BME280;26952;42.884;23.918;2023-04-12T00:59:58;94830.63;;;8.91;83.82
41222;BME280;26952;42.884;23.918;2023-04-12T01:02:23;94847.69;;;8.95;83.00
41222;BME280;26952;42.884;23.918;2023-04-12T01:04:49;94775.69;;;8.44;86.62
41222;BME280;26952;42.884;23.918;2023-04-12T01:16:30;94834.00;;;9.27;77.75
41222;BME280;26952;42.884;23.918;2023-04-12T01:19:03;94809.03;;;9.30;77.53
41222;BME280;26952;42.884;23.918;2023-04-12T01:21:41;94820.44;;;9.30;79.34
41222;BME280;26952;42.884;23.918;2023-04-12T01:24:34;94818.66;;;8.95;83.73
41222;BME280;26952;42.884;23.918;2023-04-12T01:27:08;94795.97;;;8.80;85.74
41222;BME280;26952;42.884;23.918;2023-04-12T01:29:36;94805.25;;;8.76;88.58
41222;BME280;26952;42.884;23.918;2023-04-12T01:32:02;94798.31;;;8.89;80.15
41222;BME280;26952;42.884;23.918;2023-04-12T01:34:31;94804.59;;;8.88;81.82
41222;BME280;26952;42.884;23.918;2023-04-12T01:37:00;94785.25;;;9.02;77.87
41222;BME280;26952;42.884;23.918;2023-04-12T01:39:26;94809.81;;;9.24;77.38
41222;BME280;26952;42.884;23.918;2023-04-12T01:41:52;94795.03;;;9.08;79.02
41222;BME280;26952;42.884;23.918;2023-04-12T01:44:17;94787.22;;;8.58;83.04
41222;BME280;26952;42.884;23.918;2023-04-12T01:46:44;94799.59;;;8.79;81.32
41222;BME280;26952;42.884;23.918;2023-04-12T01:49:11;94828.31;;;9.03;79.10
41222;BME280;26952;42.884;23.918;2023-04-12T01:54:38;94814.91;;;9.25;78.59
41222;BME280;26952;42.884;23.918;2023-04-12T01:57:06;94806.97;;;9.46;75.29
41222;BME280;26952;42.884;23.918;2023-04-12T01:59:38;94798.22;;;9.46;76.22
41222;BME280;26952;42.884;23.918;2023-04-12T02:02:04;94786.72;;;9.32;76.39
41222;BME280;26952;42.884;23.918;2023-04-12T02:04:32;94813.38;;;9.37;78.65
41222;BME280;26952;42.884;23.918;2023-04-12T02:06:57;94793.75;;;9.46;76.21
41222;BME280;26952;42.884;23.918;2023-04-12T02:09:23;94818.22;;;9.61;74.60
41222;BME280;26952;42.884;23.918;2023-04-12T02:11:48;94790.09;;;9.47;74.30
41222;BME280;26952;42.884;23.918;2023-04-12T02:14:14;94745.47;;;9.31;72.59
41222;BME280;26952;42.884;23.918;2023-04-12T02:16:40;94789.06;;;9.76;71.71
41222;BME280;26952;42.884;23.918;2023-04-12T02:19:10;94816.69;;;9.73;74.68
41222;BME280;26952;42.884;23.918;2023-04-12T02:21:45;94783.63;;;9.56;73.95
41222;BME280;26952;42.884;23.918;2023-04-12T02:24:11;94808.91;;;9.65;73.78
41222;BME280;26952;42.884;23.918;2023-04-12T02:26:37;94795.59;;;9.80;71.72
41222;BME280;26952;42.884;23.918;2023-04-12T02:29:04;94811.16;;;9.96;72.07
41222;BME280;26952;42.884;23.918;2023-04-12T02:31:32;94780.91;;;9.71;71.55
41222;BME280;26952;42.884;23.918;2023-04-12T02:33:58;94821.72;;;9.96;72.14
41222;BME280;26952;42.884;23.918;2023-04-12T02:36:23;94789.50;;;9.79;71.65
41222;BME280;26952;42.884;23.918;2023-04-12T02:38:49;94800.88;;;10.08;69.50
41222;BME280;26952;42.884;23.918;2023-04-12T02:41:18;94802.41;;;9.96;71.08
41222;BME280;26952;42.884;23.918;2023-04-12T02:43:43;94801.38;;;9.90;73.06
41222;BME280;26952;42.884;23.918;2023-04-12T02:46:09;94813.16;;;9.94;72.27
41222;BME280;26952;42.884;23.918;2023-04-12T02:48:37;94805.50;;;10.06;70.91
41222;BME280;26952;42.884;23.918;2023-04-12T02:51:03;94806.19;;;10.08;71.20
41222;BME280;26952;42.884;23.918;2023-04-12T02:53:28;94799.75;;;9.96;71.77
41222;BME280;26952;42.884;23.918;2023-04-12T02:55:53;94798.13;;;9.95;71.72
41222;BME280;26952;42.884;23.918;2023-04-12T02:58:21;94819.03;;;10.17;71.17
41222;BME280;26952;42.884;23.918;2023-04-12T03:00:46;94817.19;;;10.11;72.15
41222;BME280;26952;42.884;23.918;2023-04-12T03:03:14;94805.44;;;9.93;72.22
41222;BME280;26952;42.884;23.918;2023-04-12T03:05:41;94777.63;;;9.97;70.07
41222;BME280;26952;42.884;23.918;2023-04-12T03:08:11;94786.78;;;10.01;74.34
41222;BME280;26952;42.884;23.918;2023-04-12T03:10:37;94809.44;;;10.10;73.36
41222;BME280;26952;42.884;23.918;2023-04-12T03:13:02;94810.03;;;10.12;74.60
41222;BME280;26952;42.884;23.918;2023-04-12T03:15:29;94798.88;;;10.10;70.74
41222;BME280;26952;42.884;23.918;2023-04-12T03:17:54;94785.03;;;10.08;71.46
41222;BME280;26952;42.884;23.918;2023-04-12T03:20:20;94798.31;;;10.21;73.65
41222;BME280;26952;42.884;23.918;2023-04-12T03:22:48;94808.72;;;10.29;70.15
41222;BME280;26952;42.884;23.918;2023-04-12T03:25:13;94792.19;;;10.20;73.68
41222;BME280;26952;42.884;23.918;2023-04-12T03:27:39;94795.06;;;10.25;71.72
41222;BME280;26952;42.884;23.918;2023-04-12T03:30:06;94782.06;;;10.24;72.09
41222;BME280;26952;42.884;23.918;2023-04-12T03:32:31;94769.78;;;10.10;75.44
41222;BME280;26952;42.884;23.918;2023-04-12T03:34:56;94771.06;;;9.93;74.81
41222;BME280;26952;42.884;23.918;2023-04-12T03:37:22;94809.06;;;10.13;75.13
41222;BME280;26952;42.884;23.918;2023-04-12T03:39:47;94770.41;;;9.84;73.01
41222;BME280;26952;42.884;23.918;2023-04-12T03:42:13;94786.69;;;10.15;71.71
41222;BME280;26952;42.884;23.918;2023-04-12T03:44:40;94752.56;;;9.93;73.48
41222;BME280;26952;42.884;23.918;2023-04-12T03:47:06;94795.06;;;10.25;72.36
41222;BME280;26952;42.884;23.918;2023-04-12T03:49:31;94793.06;;;10.27;71.12
41222;BME280;26952;42.884;23.918;2023-04-12T03:51:57;94788.59;;;10.34;70.89
41222;BME280;26952;42.884;23.918;2023-04-12T03:54:22;94809.41;;;10.44;71.13
41222;BME280;26952;42.884;23.918;2023-04-12T03:56:48;94810.63;;;10.48;71.20
41222;BME280;26952;42.884;23.918;2023-04-12T03:59:13;94806.19;;;10.55;69.79
41222;BME280;26952;42.884;23.918;2023-04-12T04:01:39;94786.44;;;10.51;68.95
41222;BME280;26952;42.884;23.918;2023-04-12T04:04:05;94801.69;;;10.55;70.50
41222;BME280;26952;42.884;23.918;2023-04-12T04:06:31;94797.00;;;10.51;70.98
41222;BME280;26952;42.884;23.918;2023-04-12T04:08:58;94808.84;;;10.55;71.60
41222;BME280;26952;42.884;23.918;2023-04-12T04:11:24;94812.28;;;10.55;70.77
41222;BME280;26952;42.884;23.918;2023-04-12T04:13:50;94800.47;;;10.51;71.77
41222;BME280;26952;42.884;23.918;2023-04-12T04:16:15;94806.16;;;10.42;73.16
41222;BME280;26952;42.884;23.918;2023-04-12T04:18:42;94804.88;;;10.38;73.17
41222;BME280;26952;42.884;23.918;2023-04-12T04:21:07;94809.78;;;10.41;74.82
41222;BME280;26952;42.884;23.918;2023-04-12T04:23:33;94812.66;;;10.46;75.87
41222;BME280;26952;42.884;23.918;2023-04-12T04:26:05;94828.59;;;10.59;71.64
41222;BME280;26952;42.884;23.918;2023-04-12T04:28:34;94812.66;;;10.46;70.35
41222;BME280;26952;42.884;23.918;2023-04-12T04:31:01;94819.06;;;10.64;70.02
41222;BME280;26952;42.884;23.918;2023-04-12T04:33:33;94849.03;;;10.78;69.60
41222;BME280;26952;42.884;23.918;2023-04-12T04:36:00;94845.38;;;10.79;68.99
41222;BME280;26952;42.884;23.918;2023-04-12T04:38:26;94845.78;;;10.76;68.93
41222;BME280;26952;42.884;23.918;2023-04-12T04:40:52;94860.00;;;10.75;69.99
41222;BME280;26952;42.884;23.918;2023-04-12T04:43:17;94857.88;;;10.57;71.99
41222;BME280;26952;42.884;23.918;2023-04-12T04:45:45;94865.03;;;10.57;70.73
41222;BME280;26952;42.884;23.918;2023-04-12T04:48:13;94856.66;;;10.53;68.71
41222;BME280;26952;42.884;23.918;2023-04-12T04:50:39;94840.16;;;10.51;67.71
41222;BME280;26952;42.884;23.918;2023-04-12T04:53:04;94855.25;;;10.57;67.99
41222;BME280;26952;42.884;23.918;2023-04-12T04:55:30;94854.63;;;10.55;70.06
41222;BME280;26952;42.884;23.918;2023-04-12T04:57:55;94865.59;;;10.52;69.19
41222;BME280;26952;42.884;23.918;2023-04-12T05:00:22;94854.63;;;10.55;67.31
41222;BME280;26952;42.884;23.918;2023-04-12T05:02:50;94842.00;;;10.51;66.38
41222;BME280;26952;42.884;23.918;2023-04-12T05:05:16;94847.91;;;10.53;65.46
41222;BME280;26952;42.884;23.918;2023-04-12T05:07:42;94844.63;;;10.51;66.93
41222;BME280;26952;42.884;23.918;2023-04-12T05:10:09;94851.41;;;10.60;65.52
41222;BME280;26952;42.884;23.918;2023-04-12T05:12:35;94862.59;;;10.62;67.03
41222;BME280;26952;42.884;23.918;2023-04-12T05:15:01;94871.81;;;10.72;70.87
41222;BME280;26952;42.884;23.918;2023-04-12T05:17:27;94849.81;;;10.72;67.02
41222;BME280;26952;42.884;23.918;2023-04-12T05:19:52;94865.75;;;10.91;61.22
41222;BME280;26952;42.884;23.918;2023-04-12T05:22:18;94862.13;;;10.92;59.86
41222;BME280;26952;42.884;23.918;2023-04-12T05:24:47;94875.56;;;11.04;52.25
41222;BME280;26952;42.884;23.918;2023-04-12T05:27:13;94862.56;;;11.09;52.43
41222;BME280;26952;42.884;23.918;2023-04-12T05:29:41;94866.63;;;11.05;54.52
41222;BME280;26952;42.884;23.918;2023-04-12T05:32:06;94885.38;;;11.03;51.28
41222;BME280;26952;42.884;23.918;2023-04-12T05:34:32;94897.16;;;11.01;51.06
41222;BME280;26952;42.884;23.918;2023-04-12T05:36:57;94886.28;;;10.83;52.41
41222;BME280;26952;42.884;23.918;2023-04-12T05:39:25;94926.06;;;10.96;50.88
41222;BME280;26952;42.884;23.918;2023-04-12T05:41:51;94928.88;;;10.88;50.68
41222;BME280;26952;42.884;23.918;2023-04-12T05:44:17;94933.13;;;10.76;51.94
41222;BME280;26952;42.884;23.918;2023-04-12T05:46:42;94937.06;;;10.59;52.86
41222;BME280;26952;42.884;23.918;2023-04-12T05:49:07;94943.88;;;10.68;53.46
41222;BME280;26952;42.884;23.918;2023-04-12T05:51:33;94880.38;;;10.06;54.98
41222;BME280;26952;42.884;23.918;2023-04-12T05:53:58;94927.34;;;10.32;55.08
41222;BME280;26952;42.884;23.918;2023-04-12T05:56:24;94916.81;;;10.38;54.26
41222;BME280;26952;42.884;23.918;2023-04-12T05:58:50;94884.63;;;10.35;53.64
41222;BME280;26952;42.884;23.918;2023-04-12T06:01:15;94930.19;;;10.64;52.50
41222;BME280;26952;42.884;23.918;2023-04-12T06:03:43;94886.78;;;10.59;51.65
41222;BME280;26952;42.884;23.918;2023-04-12T06:06:09;94892.16;;;10.72;52.70
41222;BME280;26952;42.884;23.918;2023-04-12T06:08:35;94865.25;;;10.68;52.06
41222;BME280;26952;42.884;23.918;2023-04-12T06:11:03;94880.84;;;10.97;50.45
41222;BME280;26952;42.884;23.918;2023-04-12T06:13:28;94883.75;;;11.09;50.13
41222;BME280;26952;42.884;23.918;2023-04-12T06:15:53;94900.50;;;11.23;50.05
41222;BME280;26952;42.884;23.918;2023-04-12T06:18:19;94851.16;;;11.08;50.40
41222;BME280;26952;42.884;23.918;2023-04-12T06:20:44;94870.16;;;11.38;49.77
41222;BME280;26952;42.884;23.918;2023-04-12T06:23:10;94891.03;;;11.74;51.21
41222;BME280;26952;42.884;23.918;2023-04-12T06:25:36;94882.66;;;12.03;50.28
41222;BME280;26952;42.884;23.918;2023-04-12T06:28:01;94879.00;;;11.91;48.14
41222;BME280;26952;42.884;23.918;2023-04-12T06:30:27;94816.78;;;11.87;48.91
41222;BME280;26952;42.884;23.918;2023-04-12T06:32:52;94866.13;;;12.33;50.02
41222;BME280;26952;42.884;23.918;2023-04-12T06:35:18;94854.84;;;12.44;50.52
41222;BME280;26952;42.884;23.918;2023-04-12T06:37:44;94850.16;;;12.46;49.14
41222;BME280;26952;42.884;23.918;2023-04-12T06:40:09;94849.56;;;12.31;47.42
41222;BME280;26952;42.884;23.918;2023-04-12T06:42:36;94874.78;;;12.67;50.42
41222;BME280;26952;42.884;23.918;2023-04-12T06:45:02;94861.72;;;12.65;45.76
41222;BME280;26952;42.884;23.918;2023-04-12T06:47:28;94856.00;;;12.62;46.76
41222;BME280;26952;42.884;23.918;2023-04-12T06:49:54;94856.44;;;12.58;46.78
41222;BME280;26952;42.884;23.918;2023-04-12T06:52:23;94853.25;;;12.17;48.99
41222;BME280;26952;42.884;23.918;2023-04-12T06:54:49;94870.19;;;12.36;47.34
41222;BME280;26952;42.884;23.918;2023-04-12T06:57:15;94855.66;;;12.38;48.25
41222;BME280;26952;42.884;23.918;2023-04-12T06:59:40;94865.00;;;12.61;48.15
41222;BME280;26952;42.884;23.918;2023-04-12T07:02:06;94846.38;;;12.74;51.96
41222;BME280;26952;42.884;23.918;2023-04-12T07:04:32;94857.88;;;13.12;47.28
41222;BME280;26952;42.884;23.918;2023-04-12T07:06:57;94874.91;;;13.42;47.66
41222;BME280;26952;42.884;23.918;2023-04-12T07:09:22;94844.81;;;13.10;46.87
41222;BME280;26952;42.884;23.918;2023-04-12T07:11:48;94835.88;;;13.05;47.74
41222;BME280;26952;42.884;23.918;2023-04-12T07:14:13;94857.88;;;13.12;46.21
41222;BME280;26952;42.884;23.918;2023-04-12T07:16:39;94853.78;;;13.16;46.14
41222;BME280;26952;42.884;23.918;2023-04-12T07:19:04;94849.16;;;13.05;46.08
41222;BME280;26952;42.884;23.918;2023-04-12T07:21:29;94832.16;;;13.06;47.28
41222;BME280;26952;42.884;23.918;2023-04-12T07:23:55;94827.69;;;13.00;46.56
41222;BME280;26952;42.884;23.918;2023-04-12T07:26:21;94845.94;;;13.27;44.62
41222;BME280;26952;42.884;23.918;2023-04-12T07:28:47;94842.78;;;13.06;45.76
41222;BME280;26952;42.884;23.918;2023-04-12T07:31:12;94830.28;;;13.44;47.52
41222;BME280;26952;42.884;23.918;2023-04-12T07:33:38;94828.00;;;13.47;45.48
41222;BME280;26952;42.884;23.918;2023-04-12T07:36:03;94846.34;;;13.31;42.62
41222;BME280;26952;42.884;23.918;2023-04-12T07:38:29;94834.59;;;13.45;43.42
41222;BME280;26952;42.884;23.918;2023-04-12T07:40:55;94834.84;;;13.37;45.76
41222;BME280;26952;42.884;23.918;2023-04-12T07:43:20;94814.84;;;13.28;44.33
41222;BME280;26952;42.884;23.918;2023-04-12T07:45:46;94820.72;;;13.36;44.37
41222;BME280;26952;42.884;23.918;2023-04-12T07:48:11;94829.25;;;13.76;42.60
41222;BME280;26952;42.884;23.918;2023-04-12T07:50:37;94820.53;;;14.36;44.04
41222;BME280;26952;42.884;23.918;2023-04-12T07:53:36;94835.06;;;15.06;41.57
41222;BME280;26952;42.884;23.918;2023-04-12T07:56:01;94808.47;;;15.47;45.51
41222;BME280;26952;42.884;23.918;2023-04-12T07:58:29;94804.47;;;15.79;40.31
41222;BME280;26952;42.884;23.918;2023-04-12T08:00:55;94808.88;;;15.74;40.08
41222;BME280;26952;42.884;23.918;2023-04-12T08:03:21;94778.03;;;15.78;40.60
41222;BME280;26952;42.884;23.918;2023-04-12T08:05:47;94828.78;;;16.35;36.91
41222;BME280;26952;42.884;23.918;2023-04-12T08:08:20;94827.50;;;16.38;37.62
41222;BME280;26952;42.884;23.918;2023-04-12T08:10:46;94808.69;;;16.56;37.51
41222;BME280;26952;42.884;23.918;2023-04-12T08:13:12;94797.63;;;16.41;36.65
41222;BME280;26952;42.884;23.918;2023-04-12T08:15:38;94810.06;;;16.47;35.12
41222;BME280;26952;42.884;23.918;2023-04-12T08:18:03;94776.28;;;16.29;35.97
41222;BME280;26952;42.884;23.918;2023-04-12T08:20:29;94781.72;;;16.69;36.35
41222;BME280;26952;42.884;23.918;2023-04-12T08:22:54;94771.13;;;17.30;35.42
41222;BME280;26952;42.884;23.918;2023-04-12T08:25:19;94765.31;;;17.78;34.04
41222;BME280;26952;42.884;23.918;2023-04-12T08:27:47;94747.44;;;18.00;35.85
41222;BME280;26952;42.884;23.918;2023-04-12T08:30:13;94771.06;;;17.42;33.87
41222;BME280;26952;42.884;23.918;2023-04-12T08:32:38;94718.06;;;17.39;36.85
41222;BME280;26952;42.884;23.918;2023-04-12T08:35:04;94753.94;;;18.04;37.27
41222;BME280;26952;42.884;23.918;2023-04-12T08:37:30;94740.44;;;17.33;38.89
41222;BME280;26952;42.884;23.918;2023-04-12T08:39:58;94726.91;;;17.39;35.81
41222;BME280;26952;42.884;23.918;2023-04-12T08:42:24;94742.31;;;16.76;38.30
41222;BME280;26952;42.884;23.918;2023-04-12T08:44:49;94735.53;;;17.30;33.65
41222;BME280;26952;42.884;23.918;2023-04-12T08:47:16;94732.19;;;17.84;37.90
41222;BME280;26952;42.884;23.918;2023-04-12T08:49:42;94752.13;;;18.43;34.57
41222;BME280;26952;42.884;23.918;2023-04-12T08:52:08;94751.81;;;16.84;34.66
41222;BME280;26952;42.884;23.918;2023-04-12T08:54:36;94755.38;;;16.15;37.02
41222;BME280;26952;42.884;23.918;2023-04-12T08:57:03;94747.06;;;15.88;36.62
41222;BME280;26952;42.884;23.918;2023-04-12T08:59:31;94730.34;;;15.81;37.30
41222;BME280;26952;42.884;23.918;2023-04-12T09:01:57;94752.50;;;15.82;39.46
41222;BME280;26952;42.884;23.918;2023-04-12T09:04:24;94731.94;;;15.48;37.12
41222;BME280;26952;42.884;23.918;2023-04-12T09:06:50;94751.78;;;15.10;38.12
41222;BME280;26952;42.884;23.918;2023-04-12T09:09:16;94742.72;;;14.52;40.33
41222;BME280;26952;42.884;23.918;2023-04-12T09:11:42;94724.69;;;14.36;36.48
41222;BME280;26952;42.884;23.918;2023-04-12T09:14:21;94763.31;;;14.93;35.49
41222;BME280;26952;42.884;23.918;2023-04-12T09:16:47;94748.59;;;15.32;34.72
41222;BME280;26952;42.884;23.918;2023-04-12T09:19:12;94721.75;;;15.56;34.11
41222;BME280;26952;42.884;23.918;2023-04-12T09:21:51;94768.63;;;14.93;32.79
41222;BME280;26952;42.884;23.918;2023-04-12T09:24:18;94683.03;;;14.24;32.28
41222;BME280;26952;42.884;23.918;2023-04-12T09:26:43;94734.72;;;14.82;34.06
41222;BME280;26952;42.884;23.918;2023-04-12T09:29:23;94737.06;;;15.84;35.83
41222;BME280;26952;42.884;23.918;2023-04-12T09:32:02;94738.19;;;16.45;30.94
41222;BME280;26952;42.884;23.918;2023-04-12T09:34:29;94742.97;;;16.09;30.31
41222;BME280;26952;42.884;23.918;2023-04-12T09:36:55;94737.19;;;15.89;33.77
41222;BME280;26952;42.884;23.918;2023-04-12T09:39:31;94749.13;;;15.75;32.98
41222;BME280;26952;42.884;23.918;2023-04-12T09:42:07;94719.19;;;15.08;34.47
41222;BME280;26952;42.884;23.918;2023-04-12T09:44:33;94731.66;;;14.96;34.32
41222;BME280;26952;42.884;23.918;2023-04-12T09:47:00;94746.81;;;15.25;32.16
41222;BME280;26952;42.884;23.918;2023-04-12T09:49:39;94720.63;;;15.34;32.91
41222;BME280;26952;42.884;23.918;2023-04-12T09:52:06;94751.81;;;15.33;33.41
41222;BME280;26952;42.884;23.918;2023-04-12T09:54:42;94760.25;;;15.60;35.33
41222;BME280;26952;42.884;23.918;2023-04-12T09:57:08;94720.81;;;15.97;32.17
41222;BME280;26952;42.884;23.918;2023-04-12T09:59:40;94733.13;;;15.75;34.12
41222;BME280;26952;42.884;23.918;2023-04-12T10:02:17;94725.13;;;15.10;32.94
41222;BME280;26952;42.884;23.918;2023-04-12T10:04:43;94724.97;;;15.05;33.97
41222;BME280;26952;42.884;23.918;2023-04-12T10:07:10;94730.38;;;15.28;36.26
41222;BME280;26952;42.884;23.918;2023-04-12T10:09:39;94720.81;;;15.09;32.33
41222;BME280;26952;42.884;23.918;2023-04-12T10:12:06;94751.41;;;15.07;32.80
41222;BME280;26952;42.884;23.918;2023-04-12T10:14:32;94723.41;;;14.86;32.89
41222;BME280;26952;42.884;23.918;2023-04-12T10:16:59;94723.63;;;14.55;30.65
41222;BME280;26952;42.884;23.918;2023-04-12T10:19:27;94734.56;;;14.65;33.98
41222;BME280;26952;42.884;23.918;2023-04-12T10:21:56;94723.53;;;14.91;31.41
41222;BME280;26952;42.884;23.918;2023-04-12T10:24:23;94724.56;;;14.90;32.25
41222;BME280;26952;42.884;23.918;2023-04-12T10:26:49;94758.66;;;15.29;31.50
41222;BME280;26952;42.884;23.918;2023-04-12T10:29:29;94728.25;;;15.07;30.87
41222;BME280;26952;42.884;23.918;2023-04-12T10:34:49;94736.16;;;15.25;31.50
41222;BME280;26952;42.884;23.918;2023-04-12T10:37:15;94729.06;;;15.84;32.48
41222;BME280;26952;42.884;23.918;2023-04-12T10:39:50;94700.06;;;15.41;32.50
41222;BME280;26952;42.884;23.918;2023-04-12T10:42:30;94716.47;;;15.26;33.67
41222;BME280;26952;42.884;23.918;2023-04-12T10:47:55;94669.69;;;14.89;33.67
41222;BME280;26952;42.884;23.918;2023-04-12T10:50:31;94739.84;;;15.54;32.43
41222;BME280;26952;42.884;23.918;2023-04-12T10:55:43;94677.78;;;15.59;34.10
41222;BME280;26952;42.884;23.918;2023-04-12T10:58:09;94736.75;;;15.92;32.60
41222;BME280;26952;42.884;23.918;2023-04-12T11:03:20;94723.94;;;15.94;33.66
41222;BME280;26952;42.884;23.918;2023-04-12T11:08:22;94712.91;;;15.44;37.84
41222;BME280;26952;42.884;23.918;2023-04-12T11:10:48;94727.31;;;15.78;36.25
41222;BME280;26952;42.884;23.918;2023-04-12T11:13:14;94753.03;;;16.41;37.39
41222;BME280;26952;42.884;23.918;2023-04-12T11:15:41;94712.38;;;15.77;36.05
41222;BME280;26952;42.884;23.918;2023-04-12T11:18:06;94699.13;;;15.06;34.86
41222;BME280;26952;42.884;23.918;2023-04-12T11:20:32;94746.06;;;15.48;36.14
41222;BME280;26952;42.884;23.918;2023-04-12T11:22:58;94723.28;;;15.22;39.98
41222;BME280;26952;42.884;23.918;2023-04-12T11:25:24;94705.66;;;14.80;38.74
41222;BME280;26952;42.884;23.918;2023-04-12T11:27:51;94742.78;;;15.35;37.36
41222;BME280;26952;42.884;23.918;2023-04-12T11:30:17;94729.84;;;15.08;37.19
41222;BME280;26952;42.884;23.918;2023-04-12T11:32:44;94701.81;;;14.47;37.59
41222;BME280;26952;42.884;23.918;2023-04-12T11:35:10;94733.13;;;15.10;36.87
41222;BME280;26952;42.884;23.918;2023-04-12T11:37:36;94732.13;;;15.35;36.18
41222;BME280;26952;42.884;23.918;2023-04-12T11:40:02;94754.44;;;15.10;35.48
41222;BME280;26952;42.884;23.918;2023-04-12T11:42:31;94715.25;;;14.70;36.59
41222;BME280;26952;42.884;23.918;2023-04-12T11:44:57;94752.28;;;14.89;35.43
41222;BME280;26952;42.884;23.918;2023-04-12T11:47:23;94741.44;;;15.02;36.14
41222;BME280;26952;42.884;23.918;2023-04-12T11:49:53;94751.22;;;15.20;35.59
41222;BME280;26952;42.884;23.918;2023-04-12T11:52:20;94727.19;;;15.08;37.53
41222;BME280;26952;42.884;23.918;2023-04-12T11:54:49;94769.50;;;14.57;38.56
41222;BME280;26952;42.884;23.918;2023-04-12T11:57:16;94729.84;;;15.08;38.29
41222;BME280;26952;42.884;23.918;2023-04-12T11:59:47;94725.31;;;15.39;36.28
41222;BME280;26952;42.884;23.918;2023-04-12T12:02:13;94760.81;;;15.51;36.66
41222;BME280;26952;42.884;23.918;2023-04-12T12:04:41;94758.44;;;15.31;37.77
41222;BME280;26952;42.884;23.918;2023-04-12T12:07:10;94761.66;;;15.21;36.87
41222;BME280;26952;42.884;23.918;2023-04-12T12:09:36;94737.72;;;15.03;36.93
41222;BME280;26952;42.884;23.918;2023-04-12T12:12:01;94743.69;;;14.87;34.70
41222;BME280;26952;42.884;23.918;2023-04-12T12:14:27;94771.31;;;15.34;36.50
41222;BME280;26952;42.884;23.918;2023-04-12T12:19:30;94766.19;;;15.62;34.34
41222;BME280;26952;42.884;23.918;2023-04-12T12:22:18;94772.81;;;15.00;36.50
41222;BME280;26952;42.884;23.918;2023-04-12T12:24:53;94747.72;;;14.24;38.63
41222;BME280;26952;42.884;23.918;2023-04-12T12:27:22;94746.22;;;13.92;38.92
41222;BME280;26952;42.884;23.918;2023-04-12T12:29:53;94752.03;;;14.25;39.66
41222;BME280;26952;42.884;23.918;2023-04-12T12:32:20;94725.97;;;13.91;37.82
41222;BME280;26952;42.884;23.918;2023-04-12T12:34:51;94745.47;;;14.46;38.04
41222;BME280;26952;42.884;23.918;2023-04-12T12:37:26;94767.41;;;14.59;39.00
41222;BME280;26952;42.884;23.918;2023-04-12T12:40:01;94779.75;;;15.01;35.58
41222;BME280;26952;42.884;23.918;2023-04-12T12:42:33;94778.28;;;15.05;35.58
41222;BME280;26952;42.884;23.918;2023-04-12T12:44:58;94768.22;;;15.19;36.09
41222;BME280;26952;42.884;23.918;2023-04-12T12:47:23;94774.75;;;14.93;34.24
41222;BME280;26952;42.884;23.918;2023-04-12T12:49:49;94784.56;;;14.81;35.77
41222;BME280;26952;42.884;23.918;2023-04-12T12:52:14;94779.47;;;14.80;35.14
41222;BME280;26952;42.884;23.918;2023-04-12T12:54:40;94730.56;;;14.56;34.93
41222;BME280;26952;42.884;23.918;2023-04-12T12:57:05;94788.97;;;14.87;35.09
41222;BME280;26952;42.884;23.918;2023-04-12T12:59:31;94763.56;;;14.55;36.06
41222;BME280;26952;42.884;23.918;2023-04-12T13:01:56;94771.97;;;14.70;37.39
41222;BME280;26952;42.884;23.918;2023-04-12T13:04:21;94777.97;;;14.66;36.92
41222;BME280;26952;42.884;23.918;2023-04-12T13:06:47;94765.16;;;14.74;37.61
41222;BME280;26952;42.884;23.918;2023-04-12T13:09:12;94715.94;;;14.65;36.70
41222;BME280;26952;42.884;23.918;2023-04-12T13:11:37;94760.53;;;14.99;38.05
41222;BME280;26952;42.884;23.918;2023-04-12T13:14:03;94767.50;;;15.00;35.58
41222;BME280;26952;42.884;23.918;2023-04-12T13:16:28;94768.38;;;14.47;36.60
41222;BME280;26952;42.884;23.918;2023-04-12T13:18:54;94712.16;;;14.19;36.44
41222;BME280;26952;42.884;23.918;2023-04-12T13:21:19;94758.94;;;14.51;36.58